EGAE/LDY METAR and TAF weather

Enter ICAO airport designator
Station Type Date Time Source
EGAE METAR 2022/05/24 11:50 UTC NOAA

EGAE 241150Z 30014KT 9999 FEW025 SCT028 13/08 Q1005


Station Type Date Time Source
EGAE Decoded METAR 2022/05/24 11:50 UTC NOAA

Eglinton / Londonderr, United Kingdom (EGAE) 55-03N 007-09W
May 24, 2022 - 07:50 AM EDT / 2022.05.24 1150 UTC
Wind: from the WNW (300 degrees) at 16 MPH (14 KT):0
Visibility: greater than 7 mile(s):0
Sky conditions: partly cloudy
Temperature: 55 F (13 C)
Dew Point: 46 F (8 C)
Relative Humidity: 71%
Pressure (altimeter): 29.68 in. Hg (1005 hPa)
ob: EGAE 241150Z 30014KT 9999 FEW025 SCT028 13/08 Q1005
cycle: 12

Station Type Date Time Source
EGAE TAF UTC NOAA

Error!

Example: see airport list